createdAt,value
2022-11-14T00:01:13.003Z,43.35
2022-11-14T00:03:40.413Z,44.33
2022-11-14T00:06:08.338Z,32.50
2022-11-14T00:08:35.984Z,35.08
2022-11-14T00:11:03.337Z,30.45
2022-11-14T00:13:30.564Z,28.55
2022-11-14T00:15:57.841Z,29.05
2022-11-14T00:18:25.174Z,26.38
2022-11-14T00:20:53.007Z,24.05
2022-11-14T00:23:21.211Z,24.38
2022-11-14T00:25:51.017Z,27.42
2022-11-14T00:28:18.360Z,25.55
2022-11-14T00:30:48.954Z,29.23
2022-11-14T00:33:20.344Z,28.05
2022-11-14T00:36:06.518Z,30.23
2022-11-14T00:38:33.755Z,29.75
2022-11-14T00:41:00.998Z,62.88
2022-11-14T00:43:28.394Z,62.35
2022-11-14T00:45:55.679Z,37.95
2022-11-14T00:48:23.020Z,45.67
2022-11-14T00:50:52.750Z,45.15
2022-11-14T00:53:20.043Z,39.28
2022-11-14T00:55:47.282Z,40.85
2022-11-14T00:58:14.601Z,37.13
2022-11-14T01:00:41.938Z,33.42
2022-11-14T01:03:09.306Z,31.92
2022-11-14T01:05:41.520Z,33.17
2022-11-14T01:08:08.793Z,28.80
2022-11-14T01:10:36.055Z,31.27
2022-11-14T01:13:03.297Z,33.08
2022-11-14T01:15:30.558Z,26.48
2022-11-14T01:17:57.859Z,32.75
2022-11-14T01:20:25.136Z,28.80
2022-11-14T01:22:52.343Z,28.23
2022-11-14T01:25:19.662Z,30.85
2022-11-14T01:27:46.942Z,30.58
2022-11-14T01:30:14.497Z,28.23
2022-11-14T01:32:41.737Z,33.95
2022-11-14T01:35:09.141Z,24.98
2022-11-14T01:37:36.370Z,26.55
2022-11-14T01:40:03.671Z,23.88
2022-11-14T01:42:30.968Z,21.60
2022-11-14T01:44:58.192Z,22.55
2022-11-14T01:47:28.324Z,18.23
2022-11-14T01:49:58.481Z,15.87
2022-11-14T01:52:27.407Z,15.63
2022-11-14T01:54:55.929Z,14.38
2022-11-14T01:57:26.166Z,14.57
2022-11-14T01:59:55.614Z,14.70
2022-11-14T02:02:25.055Z,16.27
2022-11-14T02:04:54.770Z,18.30
2022-11-14T02:07:22.136Z,21.15
2022-11-14T02:09:49.949Z,18.80
2022-11-14T02:12:18.399Z,18.35
2022-11-14T02:14:46.841Z,17.92
2022-11-14T02:17:29.140Z,16.23
2022-11-14T02:20:17.359Z,16.88
2022-11-14T02:22:44.611Z,15.82
2022-11-14T02:25:12.673Z,19.42
2022-11-14T02:27:40.341Z,16.52
2022-11-14T02:30:09.549Z,17.08
2022-11-14T02:35:24.091Z,15.57
2022-11-14T02:37:51.324Z,15.98
2022-11-14T02:40:18.639Z,15.85
2022-11-14T02:42:45.932Z,14.70
2022-11-14T02:45:13.325Z,15.38
2022-11-14T02:47:40.561Z,13.85
2022-11-14T02:50:07.952Z,14.10
2022-11-14T02:52:35.202Z,15.20
2022-11-14T02:55:02.533Z,13.25
2022-11-14T02:57:29.790Z,15.23
2022-11-14T02:59:57.055Z,14.57
2022-11-14T03:02:24.317Z,12.38
2022-11-14T03:04:51.573Z,12.75
2022-11-14T03:07:18.918Z,13.50
2022-11-14T03:09:46.242Z,15.73
2022-11-14T03:12:16.278Z,13.40
2022-11-14T03:14:43.529Z,12.27
2022-11-14T03:17:10.780Z,12.82
2022-11-14T03:19:38.573Z,11.35
2022-11-14T03:22:05.843Z,10.65
2022-11-14T03:24:33.121Z,11.10
2022-11-14T03:27:00.483Z,10.68
2022-11-14T03:29:27.838Z,12.50
2022-11-14T03:31:55.095Z,12.02
2022-11-14T03:34:22.366Z,13.02
2022-11-14T03:36:49.867Z,14.40
2022-11-14T03:39:17.179Z,13.02
2022-11-14T03:41:44.433Z,11.50
2022-11-14T03:44:11.723Z,12.23
2022-11-14T03:46:38.963Z,11.57
2022-11-14T03:49:06.391Z,12.23
2022-11-14T03:51:33.608Z,11.93
2022-11-14T03:54:00.895Z,12.88
2022-11-14T03:56:28.142Z,14.07
2022-11-14T03:58:55.376Z,14.88
2022-11-14T04:01:22.725Z,15.43
2022-11-14T04:03:50.114Z,12.60
2022-11-14T04:06:17.346Z,11.95
2022-11-14T04:08:44.568Z,12.38
2022-11-14T04:11:11.887Z,9.98
2022-11-14T04:13:39.185Z,10.63
2022-11-14T04:16:06.778Z,9.40
2022-11-14T04:18:34.054Z,9.18
2022-11-14T04:21:01.309Z,10.55
2022-11-14T04:23:28.630Z,11.43
2022-11-14T04:25:57.313Z,11.15
2022-11-14T04:28:24.655Z,9.98
2022-11-14T04:30:51.912Z,10.20
2022-11-14T04:33:19.149Z,10.23
2022-11-14T04:35:46.397Z,9.35
2022-11-14T04:38:13.633Z,13.23
2022-11-14T04:40:40.889Z,10.98
2022-11-14T04:43:08.189Z,10.63
2022-11-14T04:45:35.553Z,11.60
2022-11-14T04:48:02.834Z,11.95
2022-11-14T04:50:30.087Z,8.70
2022-11-14T04:52:57.350Z,10.13
2022-11-14T04:55:24.657Z,9.07
2022-11-14T04:57:56.049Z,10.80
2022-11-14T05:00:23.488Z,10.20
2022-11-14T05:02:51.031Z,9.45
2022-11-14T05:05:18.273Z,10.70
2022-11-14T05:07:45.532Z,11.52
2022-11-14T05:10:12.839Z,12.77
2022-11-14T05:12:40.091Z,14.07
2022-11-14T05:15:07.582Z,13.93
2022-11-14T05:17:34.911Z,14.80
2022-11-14T05:20:02.217Z,14.70
2022-11-14T05:22:29.496Z,14.95
2022-11-14T05:24:56.818Z,13.07
2022-11-14T05:27:25.350Z,14.85
2022-11-14T05:29:52.589Z,14.27
2022-11-14T05:32:19.920Z,14.52
2022-11-14T05:34:47.173Z,15.20
2022-11-14T05:37:14.572Z,16.17
2022-11-14T05:39:41.806Z,15.13
2022-11-14T05:42:09.058Z,14.93
2022-11-14T05:44:36.352Z,15.93
2022-11-14T05:47:03.602Z,15.30
2022-11-14T05:49:30.855Z,15.95
2022-11-14T05:51:58.130Z,13.15
2022-11-14T05:54:25.407Z,11.75
2022-11-14T05:56:52.659Z,12.77
2022-11-14T05:59:19.927Z,12.82
2022-11-14T06:01:48.371Z,13.45
2022-11-14T06:04:15.621Z,12.73
2022-11-14T06:06:43.086Z,16.23
2022-11-14T06:09:10.398Z,13.25
2022-11-14T06:11:37.629Z,15.30
2022-11-14T06:14:10.500Z,14.43
2022-11-14T06:16:38.408Z,13.70
2022-11-14T06:19:05.730Z,12.98
2022-11-14T06:21:32.974Z,12.88
2022-11-14T06:24:00.389Z,13.02
2022-11-14T06:26:31.345Z,15.77
2022-11-14T06:31:26.302Z,14.43
2022-11-14T06:33:53.802Z,16.63
2022-11-14T06:36:21.133Z,14.13
2022-11-14T06:38:48.413Z,15.70
2022-11-14T06:41:22.887Z,15.85
2022-11-14T06:43:51.224Z,17.45
2022-11-14T06:46:19.456Z,16.30
2022-11-14T06:48:47.394Z,16.65
2022-11-14T06:51:15.344Z,18.00
2022-11-14T06:53:43.057Z,17.25
2022-11-14T06:56:11.381Z,21.42
2022-11-14T06:58:39.680Z,19.13
2022-11-14T07:01:07.907Z,18.17
2022-11-14T07:03:35.342Z,15.88
2022-11-14T07:06:03.010Z,15.10
2022-11-14T07:08:30.913Z,20.48
2022-11-14T07:11:02.807Z,19.25
2022-11-14T07:13:31.389Z,17.63
2022-11-14T07:15:58.764Z,19.55
2022-11-14T07:18:26.457Z,15.90
2022-11-14T07:21:00.710Z,15.13
2022-11-14T07:23:28.492Z,16.67
2022-11-14T07:25:55.785Z,16.67
2022-11-14T07:28:23.030Z,19.52
2022-11-14T07:30:50.266Z,18.67
2022-11-14T07:33:17.501Z,16.70
2022-11-14T07:35:44.740Z,16.77
2022-11-14T07:38:12.034Z,15.57
2022-11-14T07:40:39.312Z,15.02
2022-11-14T07:43:06.600Z,18.30
2022-11-14T07:45:33.877Z,16.65
2022-11-14T07:48:02.537Z,16.73
2022-11-14T07:50:31.120Z,16.48
2022-11-14T07:52:58.400Z,17.45
2022-11-14T07:55:26.015Z,15.95
2022-11-14T07:57:54.611Z,15.45
2022-11-14T08:00:22.046Z,15.55
2022-11-14T08:02:49.332Z,15.10
2022-11-14T08:05:16.815Z,15.90
2022-11-14T08:07:44.814Z,19.15
2022-11-14T08:10:13.680Z,15.68
2022-11-14T08:12:41.718Z,17.15
2022-11-14T08:15:09.689Z,15.77
2022-11-14T08:17:36.966Z,18.20
2022-11-14T08:20:04.989Z,16.23
2022-11-14T08:22:32.417Z,18.52
2022-11-14T08:24:59.643Z,18.10
2022-11-14T08:27:26.926Z,16.05
2022-11-14T08:29:54.215Z,18.98
2022-11-14T08:32:21.515Z,17.85
2022-11-14T08:34:48.863Z,18.70
2022-11-14T08:37:16.200Z,18.00
2022-11-14T08:39:43.492Z,18.55
2022-11-14T08:42:10.724Z,18.88
2022-11-14T08:44:38.069Z,16.40
2022-11-14T08:47:05.377Z,14.60
2022-11-14T08:49:32.612Z,15.90
2022-11-14T08:51:59.994Z,13.85
2022-11-14T08:54:27.285Z,16.75
2022-11-14T08:56:54.554Z,17.95
2022-11-14T08:59:21.926Z,19.13
2022-11-14T09:01:49.193Z,16.88
2022-11-14T09:04:16.651Z,16.83
2022-11-14T09:06:46.163Z,17.30
2022-11-14T09:09:13.424Z,14.68
2022-11-14T09:11:40.800Z,14.13
2022-11-14T09:14:08.141Z,15.43
2022-11-14T09:16:35.526Z,17.23
2022-11-14T09:19:02.762Z,15.27
2022-11-14T09:21:29.989Z,15.73
2022-11-14T09:24:00.681Z,15.43
2022-11-14T09:26:29.234Z,15.18
2022-11-14T09:28:56.493Z,16.63
2022-11-14T09:31:23.722Z,15.65
2022-11-14T09:33:50.949Z,17.42
2022-11-14T09:36:18.739Z,16.17
2022-11-14T09:38:46.507Z,16.00
2022-11-14T09:41:13.725Z,15.02
2022-11-14T09:43:59.039Z,13.88
2022-11-14T09:46:39.787Z,18.38
2022-11-14T09:49:27.388Z,14.43
2022-11-14T09:51:59.483Z,16.52
2022-11-14T09:54:32.999Z,13.20
2022-11-14T09:57:00.874Z,14.90
2022-11-14T09:59:28.343Z,14.88
2022-11-14T10:02:14.564Z,14.55
2022-11-14T10:04:53.793Z,15.05
2022-11-14T10:07:39.872Z,14.20
2022-11-14T10:10:25.845Z,14.93
2022-11-14T10:13:08.216Z,12.68
2022-11-14T10:15:43.809Z,12.68
2022-11-14T10:18:22.377Z,14.07
2022-11-14T10:20:53.981Z,12.57
2022-11-14T10:23:39.686Z,10.98
2022-11-14T10:26:11.047Z,9.38
2022-11-14T10:28:38.326Z,10.98
2022-11-14T10:31:17.489Z,10.10
2022-11-14T10:33:52.957Z,10.32
2022-11-14T10:36:37.786Z,10.75
2022-11-14T10:39:10.142Z,10.98
2022-11-14T10:42:08.101Z,9.70
2022-11-14T10:44:27.811Z,10.50
2022-11-14T10:46:57.251Z,7.45
2022-11-14T10:49:25.841Z,11.15
2022-11-14T10:51:58.515Z,8.93
2022-11-14T10:54:28.500Z,8.85
2022-11-14T10:56:56.198Z,8.63
2022-11-14T10:59:23.830Z,7.80
2022-11-14T11:01:51.040Z,8.00
2022-11-14T11:04:22.888Z,8.85
2022-11-14T11:06:51.409Z,8.02
2022-11-14T11:09:45.475Z,8.23
2022-11-14T11:12:17.903Z,8.35
2022-11-14T11:14:46.251Z,11.45
2022-11-14T11:17:15.689Z,11.73
2022-11-14T11:19:43.591Z,11.52
2022-11-14T11:22:27.694Z,9.68
2022-11-14T11:24:54.967Z,9.88
2022-11-14T11:27:27.053Z,11.80
2022-11-14T11:30:05.624Z,11.80
2022-11-14T11:32:32.912Z,11.60
2022-11-14T11:35:01.901Z,11.00
2022-11-14T11:37:31.382Z,12.15
2022-11-14T11:40:02.268Z,12.60
2022-11-14T11:42:58.777Z,14.50
2022-11-14T11:45:18.536Z,10.93
2022-11-14T11:47:49.013Z,10.93
2022-11-14T11:50:18.642Z,9.55
2022-11-14T11:53:04.379Z,9.30
2022-11-14T11:55:33.982Z,9.70
2022-11-14T11:58:12.889Z,9.23
2022-11-14T12:00:40.277Z,9.82
2022-11-14T12:03:13.240Z,9.13
2022-11-14T12:05:41.274Z,8.15
2022-11-14T12:08:20.084Z,7.88
2022-11-14T12:10:48.911Z,7.85
2022-11-14T12:13:35.087Z,8.18
2022-11-14T12:16:12.731Z,6.72
2022-11-14T12:18:59.283Z,7.65
2022-11-14T12:21:44.428Z,7.75
2022-11-14T12:24:31.072Z,6.40
2022-11-14T12:27:05.209Z,6.22
2022-11-14T12:29:51.243Z,6.20
2022-11-14T12:32:41.872Z,6.45
2022-11-14T12:35:14.769Z,5.20
2022-11-14T12:37:51.315Z,5.95
2022-11-14T12:40:21.605Z,6.40
2022-11-14T12:42:49.341Z,6.13
2022-11-14T12:45:39.784Z,7.40
2022-11-14T12:48:25.960Z,7.03
2022-11-14T12:50:56.559Z,6.80
2022-11-14T12:53:39.511Z,6.65
2022-11-14T12:56:25.156Z,10.68
2022-11-14T12:59:16.469Z,10.35
2022-11-14T13:01:43.762Z,9.77
2022-11-14T13:04:14.028Z,11.63
2022-11-14T13:06:47.430Z,11.52
2022-11-14T13:09:36.289Z,10.07
2022-11-14T13:12:40.996Z,8.63
2022-11-14T13:15:43.477Z,7.38
2022-11-14T13:18:53.407Z,10.10
2022-11-14T13:21:45.318Z,8.43
2022-11-14T13:24:17.396Z,9.48
2022-11-14T13:26:45.626Z,9.35
2022-11-14T13:29:42.476Z,8.52
2022-11-14T13:32:12.877Z,8.77
2022-11-14T13:34:43.316Z,7.70
2022-11-14T13:37:33.952Z,8.00
2022-11-14T13:40:08.556Z,7.57
2022-11-14T13:42:45.930Z,8.98
2022-11-14T13:45:22.184Z,9.38
2022-11-14T13:48:08.038Z,11.30
2022-11-14T13:50:40.635Z,8.07
2022-11-14T13:53:20.040Z,9.65
2022-11-14T13:55:47.321Z,9.82
2022-11-14T13:58:26.881Z,8.93
2022-11-14T14:00:57.414Z,9.68
2022-11-14T14:03:43.490Z,10.05
2022-11-14T14:06:10.802Z,9.27
2022-11-14T14:08:53.715Z,9.40
2022-11-14T14:11:41.627Z,9.13
2022-11-14T14:14:24.784Z,8.52
2022-11-14T14:16:58.678Z,8.35
2022-11-14T14:19:26.377Z,9.02
2022-11-14T14:22:00.272Z,8.43
2022-11-14T14:24:27.517Z,7.78
2022-11-14T14:27:06.717Z,6.78
2022-11-14T14:29:44.033Z,9.65
2022-11-14T14:32:17.892Z,7.20
2022-11-14T14:34:45.293Z,6.88
2022-11-14T14:37:29.313Z,8.02
2022-11-14T14:40:00.771Z,7.45
2022-11-14T14:42:34.838Z,8.20
2022-11-14T14:45:03.604Z,9.07
2022-11-14T14:47:33.750Z,9.27
2022-11-14T14:50:02.368Z,7.77
2022-11-14T14:52:30.101Z,8.27
2022-11-14T14:54:58.162Z,6.90
2022-11-14T14:57:25.654Z,8.20
2022-11-14T15:00:02.850Z,7.45
2022-11-14T15:02:30.451Z,6.32
2022-11-14T15:04:59.450Z,6.60
2022-11-14T15:07:27.676Z,7.25
2022-11-14T15:09:59.567Z,7.40
2022-11-14T15:12:28.124Z,7.18
2022-11-14T15:14:55.564Z,7.30
2022-11-14T15:17:23.453Z,7.78
2022-11-14T15:19:52.133Z,8.20
2022-11-14T15:22:19.413Z,8.10
2022-11-14T15:25:05.552Z,8.80
2022-11-14T15:27:33.376Z,8.05
2022-11-14T15:30:02.415Z,7.60
2022-11-14T15:32:29.837Z,7.00
2022-11-14T15:35:09.270Z,7.47
2022-11-14T15:37:36.519Z,8.60
2022-11-14T15:40:17.307Z,9.43
2022-11-14T15:42:44.582Z,9.95
2022-11-14T15:45:21.921Z,8.88
2022-11-14T15:47:50.600Z,8.95
2022-11-14T15:50:17.832Z,7.85
2022-11-14T15:52:54.165Z,7.63
2022-11-14T15:55:22.877Z,7.07
2022-11-14T15:58:00.985Z,7.72
2022-11-14T16:00:39.769Z,8.00
2022-11-14T16:03:11.327Z,8.93
2022-11-14T16:05:38.635Z,9.27
2022-11-14T16:08:06.052Z,8.82
2022-11-14T16:10:33.358Z,8.45
2022-11-14T16:13:00.601Z,9.30
2022-11-14T16:15:27.847Z,8.80
2022-11-14T16:17:55.079Z,9.77
2022-11-14T16:20:25.970Z,11.32
2022-11-14T16:22:56.761Z,9.57
2022-11-14T16:25:25.902Z,9.48
2022-11-14T16:27:53.192Z,9.65
2022-11-14T16:30:21.638Z,9.20
2022-11-14T16:32:49.672Z,10.43
2022-11-14T16:35:18.259Z,9.80
2022-11-14T16:37:45.911Z,10.20
2022-11-14T16:40:23.082Z,10.38
2022-11-14T16:42:52.026Z,10.13
2022-11-14T16:45:25.825Z,10.77
2022-11-14T16:47:53.984Z,10.43
2022-11-14T16:50:21.511Z,10.07
2022-11-14T16:52:49.314Z,10.60
2022-11-14T16:55:16.767Z,11.38
2022-11-14T16:57:44.519Z,10.60
2022-11-14T17:00:12.993Z,11.05
2022-11-14T17:02:43.410Z,11.10
2022-11-14T17:05:10.903Z,16.17
2022-11-14T17:07:38.167Z,11.10
2022-11-14T17:10:06.605Z,13.73
2022-11-14T17:12:34.690Z,15.52
2022-11-14T17:15:01.984Z,14.13
2022-11-14T17:17:29.312Z,12.77
2022-11-14T17:19:56.542Z,12.18
2022-11-14T17:22:25.127Z,12.52
2022-11-14T17:24:52.412Z,8.30
2022-11-14T17:27:19.681Z,9.75
2022-11-14T17:29:46.931Z,9.77
2022-11-14T17:32:14.265Z,9.85
2022-11-14T17:34:41.501Z,8.50
2022-11-14T17:37:08.768Z,8.70
2022-11-14T17:39:36.127Z,8.13
2022-11-14T17:42:03.392Z,7.85
2022-11-14T17:44:30.625Z,8.23
2022-11-14T17:46:57.871Z,7.63
2022-11-14T17:49:25.575Z,8.48
2022-11-14T17:51:52.854Z,8.20
2022-11-14T17:54:20.105Z,8.63
2022-11-14T17:56:52.247Z,8.30
2022-11-14T17:59:22.243Z,10.30
2022-11-14T18:01:49.674Z,9.52
2022-11-14T18:04:17.147Z,8.82
2022-11-14T18:06:44.547Z,8.70
2022-11-14T18:09:14.395Z,8.52
2022-11-14T18:11:41.983Z,7.47
2022-11-14T18:14:09.242Z,8.82
2022-11-14T18:17:05.293Z,8.85
2022-11-14T18:19:25.059Z,9.25
2022-11-14T18:21:53.874Z,8.88
2022-11-14T18:24:21.921Z,9.77
2022-11-14T18:26:49.231Z,9.95
2022-11-14T18:29:17.915Z,11.38
2022-11-14T18:31:45.279Z,11.05
2022-11-14T18:34:13.149Z,10.45
2022-11-14T18:36:40.384Z,8.38
2022-11-14T18:39:07.674Z,9.07
2022-11-14T18:41:34.937Z,10.80
2022-11-14T18:44:03.835Z,9.85
2022-11-14T18:46:37.168Z,10.68
2022-11-14T18:49:04.900Z,9.60
2022-11-14T18:51:33.279Z,11.40
2022-11-14T18:54:00.543Z,11.57
2022-11-14T18:56:27.810Z,10.13
2022-11-14T18:58:56.555Z,10.85
2022-11-14T19:01:29.361Z,9.73
2022-11-14T19:03:57.794Z,10.95
2022-11-14T19:06:25.178Z,10.93
2022-11-14T19:08:56.677Z,10.65
2022-11-14T19:11:42.779Z,10.80
2022-11-14T19:14:10.046Z,10.27
2022-11-14T19:16:37.822Z,12.13
2022-11-14T19:19:05.915Z,11.02
2022-11-14T19:21:33.232Z,11.57
2022-11-14T19:24:00.581Z,11.98
2022-11-14T19:26:28.587Z,11.70
2022-11-14T19:28:56.424Z,12.27
2022-11-14T19:31:24.016Z,12.02
2022-11-14T19:33:51.275Z,11.90
2022-11-14T19:36:44.893Z,10.90
2022-11-14T19:39:07.176Z,9.73
2022-11-14T19:41:34.505Z,12.88
2022-11-14T19:44:02.705Z,10.45
2022-11-14T19:46:30.189Z,12.60
2022-11-14T19:48:58.152Z,12.05
2022-11-14T19:51:25.467Z,12.73
2022-11-14T19:53:55.984Z,12.55
2022-11-14T19:56:23.566Z,13.75
2022-11-14T19:58:52.567Z,13.00
2022-11-14T20:01:21.241Z,13.48
2022-11-14T20:03:55.708Z,14.80
2022-11-14T20:06:27.348Z,12.00
2022-11-14T20:08:55.010Z,11.85
2022-11-14T20:11:22.758Z,12.20
2022-11-14T20:13:50.323Z,11.85
2022-11-14T20:16:19.255Z,10.48
2022-11-14T20:18:51.292Z,10.38
2022-11-14T20:21:23.397Z,8.75
2022-11-14T20:23:50.866Z,9.68
2022-11-14T20:26:18.994Z,12.38
2022-11-14T20:28:47.279Z,12.68
2022-11-14T20:31:18.441Z,11.15
2022-11-14T20:33:46.917Z,10.15
2022-11-14T20:36:15.570Z,9.98
2022-11-14T20:38:44.343Z,11.50
2022-11-14T20:41:12.718Z,11.30
2022-11-14T20:43:40.046Z,10.23
2022-11-14T20:46:13.276Z,8.80
2022-11-14T20:48:41.076Z,9.55
2022-11-14T20:51:09.682Z,9.82
2022-11-14T20:53:37.008Z,9.27
2022-11-14T20:56:04.433Z,6.65
2022-11-14T20:58:32.192Z,7.47
2022-11-14T21:00:59.881Z,7.78
2022-11-14T21:03:27.211Z,6.88
2022-11-14T21:05:54.485Z,7.60
2022-11-14T21:08:22.808Z,8.23
2022-11-14T21:10:50.817Z,6.50
2022-11-14T21:13:38.190Z,6.20
2022-11-14T21:16:10.076Z,5.53
2022-11-14T21:18:39.435Z,6.60
2022-11-14T21:21:13.097Z,7.35
2022-11-14T21:23:40.337Z,7.25
2022-11-14T21:26:15.337Z,5.35
2022-11-14T21:28:43.924Z,5.03
2022-11-14T21:31:14.363Z,5.00
2022-11-14T21:33:42.082Z,5.07
2022-11-14T21:36:30.115Z,5.47
2022-11-14T21:38:57.660Z,6.00
2022-11-14T21:41:25.769Z,5.68
2022-11-14T21:43:56.813Z,5.30
2022-11-14T21:48:51.631Z,5.55
2022-11-14T21:51:20.453Z,5.50
2022-11-14T21:53:48.631Z,6.13
2022-11-14T21:56:22.258Z,6.25
2022-11-14T21:58:50.355Z,6.05
2022-11-14T22:01:40.487Z,6.20
2022-11-14T22:04:14.267Z,6.68
2022-11-14T22:06:42.689Z,6.80
2022-11-14T22:09:10.455Z,6.40
2022-11-14T22:11:40.886Z,6.55
2022-11-14T22:14:08.300Z,7.13
2022-11-14T22:16:35.806Z,6.13
2022-11-14T22:19:05.675Z,5.72
2022-11-14T22:21:33.228Z,5.67
2022-11-14T22:24:00.520Z,6.43
2022-11-14T22:26:27.785Z,7.55
2022-11-14T22:28:55.023Z,6.30
2022-11-14T22:31:23.161Z,6.35
2022-11-14T22:33:51.957Z,6.45
2022-11-14T22:36:23.143Z,5.95
2022-11-14T22:38:50.995Z,6.63
2022-11-14T22:41:19.754Z,6.25
2022-11-14T22:43:47.424Z,6.50
2022-11-14T22:46:16.976Z,6.50
2022-11-14T22:48:44.920Z,6.65
2022-11-14T22:51:16.173Z,6.35
2022-11-14T22:53:46.042Z,7.65
2022-11-14T22:56:13.276Z,6.93
2022-11-14T22:58:41.287Z,7.13
2022-11-14T23:01:22.221Z,6.80
2022-11-14T23:03:53.299Z,6.93
2022-11-14T23:08:47.869Z,7.15
2022-11-14T23:11:17.088Z,7.15
2022-11-14T23:13:46.729Z,7.18
2022-11-14T23:16:20.986Z,6.10
2022-11-14T23:18:48.969Z,6.40
2022-11-14T23:21:20.676Z,6.05
2022-11-14T23:23:52.974Z,5.85
2022-11-14T23:26:20.642Z,5.63
2022-11-14T23:28:47.994Z,6.03
2022-11-14T23:31:19.424Z,5.70
2022-11-14T23:33:50.819Z,6.00
2022-11-14T23:36:18.274Z,6.20
2022-11-14T23:38:45.818Z,6.05
2022-11-14T23:41:17.688Z,5.90
2022-11-14T23:43:45.015Z,5.75
2022-11-14T23:46:12.467Z,5.30
2022-11-14T23:48:39.719Z,6.25
2022-11-14T23:51:07.048Z,5.47
2022-11-14T23:53:34.513Z,6.45
2022-11-14T23:56:02.465Z,5.65
2022-11-14T23:58:30.433Z,6.65
